Ce-bermuda — D5LD5 — position and weather

sailwx.info

Track history (hours):
 
Tides and Currents Weather Stations Pressure Air Temp Water Temp Dewpoint Dewpoint Depression Visibility Wind Speed Wind Dir Waves Ship Positions

Ce-bermuda

Last reported at 2017-Nov-14 13:04 UTC. Time now 2017-Nov-24 20:46 UTC.
Position N 44°15' E 013°54'.
Warning: this ship's position is 10 days out of date.

Length 274 m; draft 9.2 m.

Type: Tanker. MMSI: 636017476.

Date/timePositionNaut miles runAvg speedWind from/ knotsBaromVisibWave heightAir tempDewpointWater temp
2017-Nov-14 13:04N 44°15' E 013°54'110.8
2017-Nov-14 12:58N 44°16' E 013°53'510.9
2017-Nov-14 12:30N 44°21' E 013°49'510.6
2017-Nov-14 12:00N 44°25' E 013°46'510.2
2017-Nov-14 11:30N 44°29' E 013°41'510.1
2017-Nov-14 11:00N 44°33' E 013°37'5 9.9
2017-Nov-14 10:30N 44°38' E 013°33'4 8.9
2017-Nov-14 10:00N 44°41' E 013°30'5 9.1
2017-Nov-14 09:30N 44°45' E 013°27'5 9.4
2017-Nov-14 09:00N 44°49' E 013°23'5 9.3
2017-Nov-14 08:30N 44°53' E 013°19'5 9.4
2017-Nov-14 08:00N 44°57' E 013°16'5 9.5
2017-Nov-14 07:30N 45°01' E 013°12'5 9.4
2017-Nov-14 07:00N 45°05' E 013°08'5 9.0
2017-Nov-14 06:30N 45°09' E 013°05'5 9.6
2017-Nov-14 06:00N 45°13' E 013°04'5 9.5
2017-Nov-14 05:30N 45°18' E 013°03'4 8.9
2017-Nov-14 05:00N 45°22' E 013°01'5 9.9
2017-Nov-14 04:30N 45°26' E 013°05'510.3
2017-Nov-14 04:00N 45°30' E 013°09'510.6
2017-Nov-14 03:30N 45°33' E 013°16'510.3
2017-Nov-14 03:00N 45°35' E 013°23'510.0
2017-Nov-14 02:30N 45°37' E 013°29'5 9.2
2017-Nov-14 02:00N 45°38' E 013°36'5 9.9
2017-Nov-14 01:30N 45°37' E 013°43'3 5.2
2017-Nov-14 01:00N 45°37' E 013°46'0 0.0
2017-Nov-14 00:29N 45°37' E 013°46'0 0.0
2017-Nov-13 23:59N 45°37' E 013°46'0 0.0
2017-Nov-13 23:29N 45°37' E 013°46'0 0.0
2017-Nov-13 22:59N 45°37' E 013°46'0 0.0
2017-Nov-13 22:29N 45°37' E 013°46'0 0.0
2017-Nov-13 21:59N 45°37' E 013°46'0 0.0
2017-Nov-13 01:59N 45°37' E 013°46'0 0.0
2017-Nov-13 01:29N 45°37' E 013°46'0 0.0
2017-Nov-13 00:47N 45°37' E 013°46'0 0.0
2017-Nov-13 00:29N 45°37' E 013°46'0 0.0
2017-Nov-12 23:59N 45°37' E 013°46'0 0.0
2017-Nov-12 23:29N 45°37' E 013°46'0 0.0
2017-Nov-12 22:59N 45°37' E 013°46'0 0.0
2017-Nov-12 22:29N 45°37' E 013°46'0 0.0
2017-Nov-12 21:53N 45°37' E 013°46'0 0.0
2017-Nov-12 21:29N 45°37' E 013°46'0 0.0
2017-Nov-12 20:59N 45°37' E 013°46'0 0.0
2017-Nov-12 20:20N 45°37' E 013°46'0 0.0
2017-Nov-12 19:56N 45°37' E 013°46'0 0.0
2017-Nov-12 19:26N 45°37' E 013°46'0 0.0
2017-Nov-12 18:53N 45°37' E 013°46'0 0.0
2017-Nov-12 18:29N 45°37' E 013°46'0 0.0
2017-Nov-12 17:59N 45°37' E 013°46'0 0.0
2017-Nov-12 17:29N 45°37' E 013°46'0 0.0
2017-Nov-12 16:59N 45°37' E 013°46'0 0.0
2017-Nov-12 16:26N 45°37' E 013°46'0 0.0
2017-Nov-12 15:59N 45°37' E 013°46'0 0.0
2017-Nov-12 15:26N 45°37' E 013°46'0 0.0
2017-Nov-12 14:59N 45°37' E 013°46'0 0.0
2017-Nov-12 14:29N 45°37' E 013°46'0 0.0
2017-Nov-12 13:59N 45°37' E 013°46'0 0.0
2017-Nov-12 13:29N 45°37' E 013°46'0 0.0
2017-Nov-12 12:59N 45°37' E 013°46'0 0.0
2017-Nov-12 12:26N 45°37' E 013°46'0 0.0
2017-Nov-12 11:59N 45°37' E 013°46'0 0.0
2017-Nov-12 11:29N 45°37' E 013°46'0 0.0
2017-Nov-12 10:59N 45°37' E 013°46'0 0.0
2017-Nov-12 10:29N 45°37' E 013°46'0 0.0
2017-Nov-12 09:56N 45°37' E 013°46'0 0.0
2017-Nov-12 09:29N 45°37' E 013°46'0 0.0
2017-Nov-12 08:59N 45°37' E 013°46'0 0.0
2017-Nov-12 08:29N 45°37' E 013°46'0 0.0
2017-Nov-12 07:59N 45°37' E 013°46'0 0.0
2017-Nov-12 07:29N 45°37' E 013°46'0 0.0
2017-Nov-12 06:59N 45°37' E 013°46'0 0.0
2017-Nov-12 06:29N 45°37' E 013°46'0 0.0
2017-Nov-12 05:59N 45°37' E 013°46'0 0.0
2017-Nov-12 05:20N 45°37' E 013°46'0 0.0
2017-Nov-12 04:59N 45°37' E 013°46'0 0.0
2017-Nov-12 04:29N 45°37' E 013°46'0 0.0
2017-Nov-12 03:59N 45°37' E 013°46'0 0.0
2017-Nov-12 03:29N 45°37' E 013°46'0 0.0
2017-Nov-12 02:59N 45°37' E 013°46'0 0.0
2017-Nov-12 02:23N 45°37' E 013°46'0 0.0
2017-Nov-12 01:59N 45°37' E 013°46'0 0.0
2017-Nov-12 01:26N 45°37' E 013°46'0 0.0
2017-Nov-12 00:59N 45°37' E 013°46'0 0.0
2017-Nov-12 00:29N 45°37' E 013°46'0 0.0
2017-Nov-11 23:59N 45°37' E 013°46'0 0.0
2017-Nov-11 23:29N 45°37' E 013°46'0 0.0
2017-Nov-11 22:59N 45°37' E 013°46'0 0.0
2017-Nov-11 22:29N 45°37' E 013°46'0 0.0
2017-Nov-11 21:59N 45°37' E 013°46'0 0.0
2017-Nov-11 21:29N 45°37' E 013°46'0 0.6
2017-Nov-11 21:00N 45°37' E 013°46'2 4.1
2017-Nov-11 20:30N 45°37' E 013°43'1 2.1
2017-Nov-11 19:58N 45°38' E 013°42'0 0.1
2017-Nov-11 19:28N 45°38' E 013°42'0 0.1
2017-Nov-11 18:55N 45°38' E 013°42'0 0.1
2017-Nov-11 18:25N 45°38' E 013°42'0 0.1
2017-Nov-11 17:58N 45°38' E 013°42'0 0.0
2017-Nov-11 17:25N 45°38' E 013°42'0 0.0
2017-Nov-11 16:58N 45°38' E 013°42'0 0.0
2017-Nov-11 16:25N 45°38' E 013°42'0 0.0
2017-Nov-11 15:58N 45°38' E 013°42'0 0.0
2017-Nov-11 15:22N 45°38' E 013°42'0 0.0
2017-Nov-11 14:58N 45°38' E 013°42'0 0.0
2017-Nov-11 14:28N 45°38' E 013°42'0 0.0
2017-Nov-11 13:55N 45°38' E 013°42'0 0.0
2017-Nov-11 13:28N 45°38' E 013°42'0 0.0
2017-Nov-11 12:58N 45°38' E 013°42'0 0.1
2017-Nov-11 12:28N 45°38' E 013°42'0 0.1
2017-Nov-11 11:58N 45°38' E 013°42'0 0.1
2017-Nov-11 11:25N 45°38' E 013°42'0 0.1
2017-Nov-11 10:58N 45°38' E 013°42'0 0.1
2017-Nov-11 10:28N 45°38' E 013°42'0 0.1
2017-Nov-11 09:55N 45°38' E 013°42'0 0.0
2017-Nov-11 09:28N 45°38' E 013°42'0 0.0
2017-Nov-11 08:58N 45°38' E 013°42'0 0.0
2017-Nov-11 08:19N 45°38' E 013°42'0 0.0
2017-Nov-11 07:52N 45°38' E 013°42'0 0.1
2017-Nov-11 07:28N 45°38' E 013°42'0 0.0
2017-Nov-11 06:55N 45°38' E 013°42'0 0.0
2017-Nov-11 06:25N 45°38' E 013°42'0 0.0
2017-Nov-11 05:55N 45°38' E 013°42'0 0.0
2017-Nov-11 05:28N 45°38' E 013°42'0 0.0
2017-Nov-11 04:58N 45°38' E 013°42'0 0.0
2017-Nov-11 04:28N 45°38' E 013°42'0 0.0
2017-Nov-11 03:58N 45°38' E 013°42'0 0.0
2017-Nov-11 03:28N 45°38' E 013°42'0 0.0
2017-Nov-11 02:58N 45°38' E 013°42'0 0.0
2017-Nov-11 02:25N 45°38' E 013°42'0 0.0
2017-Nov-11 01:58N 45°38' E 013°42'0 0.0
2017-Nov-11 01:28N 45°38' E 013°42'0 0.0
2017-Nov-11 00:58N 45°38' E 013°42'0 0.0
2017-Nov-11 00:25N 45°38' E 013°42'0 0.0
2017-Nov-10 23:58N 45°38' E 013°42'0 0.0
2017-Nov-10 23:28N 45°38' E 013°42'0 0.0
2017-Nov-10 22:58N 45°38' E 013°42'0 0.0
2017-Nov-10 22:28N 45°38' E 013°42'0 0.0
2017-Nov-10 21:55N 45°38' E 013°42'0 0.0
2017-Nov-10 21:28N 45°38' E 013°42'0 0.1
2017-Nov-10 20:55N 45°38' E 013°42'0 0.1
2017-Nov-10 20:28N 45°38' E 013°42'0 0.2
2017-Nov-10 19:58N 45°38' E 013°42'0 0.1
2017-Nov-10 19:28N 45°38' E 013°42'0 0.0
2017-Nov-10 18:55N 45°38' E 013°42'0 0.0
2017-Nov-10 18:28N 45°38' E 013°42'0 0.0
2017-Nov-10 17:58N 45°38' E 013°42'0 0.0
2017-Nov-10 17:28N 45°38' E 013°42'0 0.0
2017-Nov-10 16:58N 45°38' E 013°42'0 0.0
2017-Nov-10 16:28N 45°38' E 013°42'0 0.0
2017-Nov-10 15:58N 45°38' E 013°42'0 0.0
2017-Nov-10 15:25N 45°38' E 013°42'0 0.0
2017-Nov-10 14:58N 45°38' E 013°42'0 0.0
2017-Nov-10 14:28N 45°38' E 013°42'0 0.0
2017-Nov-10 13:58N 45°38' E 013°42'0 0.0
2017-Nov-10 13:19N 45°38' E 013°42'0 0.0
2017-Nov-10 12:58N 45°38' E 013°42'0 0.0
2017-Nov-10 12:28N 45°38' E 013°42'0 0.0
2017-Nov-10 11:55N 45°38' E 013°42'0 0.0
2017-Nov-10 11:19N 45°38' E 013°42'0 0.0
2017-Nov-10 10:58N 45°38' E 013°42'0 0.1
2017-Nov-10 10:25N 45°38' E 013°42'0 0.1
2017-Nov-10 09:55N 45°38' E 013°42'0 0.0
2017-Nov-10 09:25N 45°38' E 013°42'0 0.0
2017-Nov-10 08:52N 45°38' E 013°42'0 0.2
2017-Nov-10 07:55N 45°38' E 013°42'0 1.2
2017-Nov-10 07:30N 45°38' E 013°41'3 6.1
2017-Nov-10 07:00N 45°37' E 013°37'5 9.8
2017-Nov-10 06:30N 45°34' E 013°31'3 5.6
2017-Nov-10 06:00N 45°33' E 013°28'2 4.6
2017-Nov-10 05:30N 45°31' E 013°25'2 4.5
2017-Nov-10 05:00N 45°30' E 013°22'4 7.0
2017-Nov-10 04:30N 45°29' E 013°18'510.4
2017-Nov-10 04:00N 45°27' E 013°11'510.3
2017-Nov-10 03:30N 45°25' E 013°04'510.0
2017-Nov-10 03:00N 45°23' E 012°57'3 6.8
2017-Nov-10 02:30N 45°22' E 012°53'0 0.3
2017-Nov-10 01:56N 45°22' E 012°53'0 0.1
2017-Nov-10 01:29N 45°22' E 012°53'0 0.0
2017-Nov-10 00:56N 45°22' E 012°53'0 0.0
2017-Nov-10 00:29N 45°22' E 012°53'0 0.0
2017-Nov-09 23:59N 45°22' E 012°53'0 0.0
2017-Nov-09 23:29N 45°22' E 012°53'0 0.0
2017-Nov-09 22:59N 45°22' E 012°53'0 0.0
2017-Nov-09 22:26N 45°22' E 012°53'0 0.0
2017-Nov-09 21:59N 45°22' E 012°53'0 0.0
2017-Nov-09 21:20N 45°22' E 012°53'0 0.0
2017-Nov-09 20:59N 45°22' E 012°53'0 0.0
2017-Nov-09 20:26N 45°22' E 012°53'0 0.0
2017-Nov-09 19:59N 45°22' E 012°53'0 0.0
2017-Nov-09 19:29N 45°22' E 012°53'0 0.0
2017-Nov-09 18:59N 45°22' E 012°53'0 0.0
2017-Nov-09 18:29N 45°22' E 012°53'0 0.0
2017-Nov-09 17:59N 45°22' E 012°53'0 0.0
2017-Nov-09 17:29N 45°22' E 012°53'0 0.0
2017-Nov-09 16:59N 45°22' E 012°53'0 0.0
2017-Nov-09 16:26N 45°22' E 012°53'0 0.0
2017-Nov-09 15:59N 45°22' E 012°53'0 0.0
2017-Nov-09 15:26N 45°22' E 012°53'0 0.0
2017-Nov-09 14:56N 45°22' E 012°53'0 0.0
2017-Nov-09 14:29N 45°22' E 012°53'0 0.0
2017-Nov-09 13:59N 45°22' E 012°53'0 0.1
2017-Nov-09 13:29N 45°22' E 012°53'0 0.0
2017-Nov-09 12:56N 45°22' E 012°53'0 0.0
2017-Nov-09 12:29N 45°22' E 012°53'0 0.0
2017-Nov-09 11:59N 45°22' E 012°53'0 0.0
2017-Nov-09 11:29N 45°22' E 012°53'0 0.0
2017-Nov-09 10:59N 45°22' E 012°53'0 0.0
2017-Nov-09 10:29N 45°22' E 012°53'0 0.0
2017-Nov-09 09:53N 45°22' E 012°53'0 0.0
2017-Nov-09 09:29N 45°22' E 012°53'0 0.0
2017-Nov-09 08:59N 45°22' E 012°53'0 0.0
2017-Nov-09 08:29N 45°22' E 012°53'0 0.0
2017-Nov-09 07:56N 45°22' E 012°53'0 0.1
2017-Nov-09 07:29N 45°22' E 012°53'0 0.0
2017-Nov-09 06:59N 45°22' E 012°53'0 0.0
2017-Nov-09 06:29N 45°22' E 012°53'0 0.0
2017-Nov-09 05:59N 45°22' E 012°53'0 0.0
2017-Nov-09 05:29N 45°22' E 012°53'0 0.0
2017-Nov-09 04:59N 45°22' E 012°53'0 0.1
2017-Nov-09 04:29N 45°22' E 012°53'0 0.0
2017-Nov-09 03:59N 45°22' E 012°53'0 0.0
2017-Nov-09 03:05N 45°22' E 012°53'0 0.0
2017-Nov-09 02:47N 45°22' E 012°53'0 0.0
2017-Nov-09 02:29N 45°22' E 012°53'0 0.0
2017-Nov-09 01:59N 45°22' E 012°53'0 0.0
2017-Nov-09 01:29N 45°22' E 012°53'0 0.1
2017-Nov-09 00:59N 45°22' E 012°53'0 0.0
2017-Nov-09 00:29N 45°22' E 012°53'0 0.0
2017-Nov-08 23:56N 45°22' E 012°53'0 0.0
2017-Nov-08 23:20N 45°22' E 012°53'0 0.0
2017-Nov-08 22:59N 45°22' E 012°53'0 0.0
2017-Nov-08 22:29N 45°22' E 012°53'0 0.0
2017-Nov-08 21:59N 45°22' E 012°53'0 0.0
2017-Nov-08 21:29N 45°22' E 012°53'0 0.0
2017-Nov-08 20:59N 45°22' E 012°53'0 0.1
2017-Nov-08 20:29N 45°22' E 012°53'0 0.1
2017-Nov-08 19:59N 45°22' E 012°53'0 0.0
2017-Nov-08 19:29N 45°22' E 012°53'0 0.0
2017-Nov-08 18:56N 45°22' E 012°53'0 0.0
2017-Nov-08 18:29N 45°22' E 012°53'0 0.0
2017-Nov-08 17:56N 45°22' E 012°53'0 0.0
2017-Nov-08 17:26N 45°22' E 012°53'0 0.0
2017-Nov-08 16:59N 45°22' E 012°53'0 0.0
2017-Nov-08 16:26N 45°22' E 012°53'0 0.0
2017-Nov-08 15:59N 45°22' E 012°53'0 0.0
2017-Nov-08 15:20N 45°22' E 012°53'0 0.0
2017-Nov-08 14:59N 45°22' E 012°53'0 0.0
2017-Nov-08 14:29N 45°22' E 012°53'0 0.0
2017-Nov-08 13:59N 45°22' E 012°53'0 0.0
2017-Nov-08 13:29N 45°22' E 012°53'0 0.0
2017-Nov-08 12:59N 45°22' E 012°53'0 0.0
2017-Nov-08 12:29N 45°22' E 012°53'0 0.0
2017-Nov-08 11:56N 45°22' E 012°53'0 0.0
2017-Nov-08 11:29N 45°22' E 012°53'0 0.0
2017-Nov-08 10:59N 45°22' E 012°53'0 0.0
2017-Nov-08 10:26N 45°22' E 012°53'0 0.0
2017-Nov-08 09:56N 45°22' E 012°53'0 0.0
2017-Nov-08 09:29N 45°22' E 012°53'0 0.0
2017-Nov-08 08:59N 45°22' E 012°53'0 0.0
2017-Nov-08 08:20N 45°22' E 012°53'0 0.0
2017-Nov-08 07:59N 45°22' E 012°53'0 0.0
2017-Nov-08 07:17N 45°22' E 012°53'0 0.0
2017-Nov-08 06:56N 45°22' E 012°53'0 0.0
2017-Nov-08 06:26N 45°22' E 012°53'0 0.0
2017-Nov-08 05:50N 45°22' E 012°53'0 0.0
2017-Nov-08 05:29N 45°22' E 012°53'0 0.0
2017-Nov-08 04:59N 45°22' E 012°53'0 0.0
2017-Nov-08 04:26N 45°22' E 012°53'0 0.0
2017-Nov-08 03:59N 45°22' E 012°53'0 0.0
2017-Nov-08 03:29N 45°22' E 012°53'0 0.0
2017-Nov-08 02:59N 45°22' E 012°53'0 0.0
2017-Nov-08 02:29N 45°22' E 012°53'0 0.0
2017-Nov-08 01:56N 45°22' E 012°53'0 0.0
2017-Nov-08 01:26N 45°22' E 012°53'0 0.0
2017-Nov-08 00:56N 45°22' E 012°53'0 0.0
2017-Nov-08 00:29N 45°22' E 012°53'0 0.0
2017-Nov-07 23:59N 45°22' E 012°53'0 0.0
2017-Nov-07 23:29N 45°22' E 012°53'0 0.0
2017-Nov-07 22:59N 45°22' E 012°53'0 0.0
2017-Nov-07 22:29N 45°22' E 012°53'0 0.0
2017-Nov-07 21:59N 45°22' E 012°53'0 0.0
2017-Nov-07 21:29N 45°22' E 012°53'0 0.0
2017-Nov-07 20:59N 45°22' E 012°53'0 0.0
2017-Nov-07 20:29N 45°22' E 012°53'0 0.0
2017-Nov-07 19:59N 45°22' E 012°53'0 0.0
2017-Nov-07 19:29N 45°22' E 012°53'0 0.0
2017-Nov-07 18:50N 45°22' E 012°53'0 0.1
2017-Nov-07 18:26N 45°22' E 012°53'0 0.0
2017-Nov-07 17:59N 45°22' E 012°53'0 0.0
2017-Nov-07 17:23N 45°22' E 012°53'0 0.0
2017-Nov-07 16:59N 45°22' E 012°53'0 0.0
2017-Nov-07 16:29N 45°22' E 012°53'0 0.0
2017-Nov-07 15:59N 45°22' E 012°53'0 0.0
2017-Nov-07 15:23N 45°22' E 012°53'0 0.0
2017-Nov-07 14:59N 45°22' E 012°53'0 0.0
2017-Nov-07 14:29N 45°22' E 012°53'0 0.0
2017-Nov-07 13:59N 45°22' E 012°53'0 0.0
2017-Nov-07 13:29N 45°22' E 012°53'0 0.1
2017-Nov-07 12:59N 45°22' E 012°53'0 0.0
2017-Nov-07 12:26N 45°22' E 012°53'0 0.0
2017-Nov-07 11:56N 45°22' E 012°53'0 0.0
2017-Nov-07 11:23N 45°22' E 012°53'0 0.0
2017-Nov-07 10:56N 45°22' E 012°53'0 0.0
2017-Nov-07 10:26N 45°22' E 012°53'0 0.0
2017-Nov-07 09:59N 45°22' E 012°53'0 0.0
2017-Nov-07 09:29N 45°22' E 012°53'0 0.0
2017-Nov-07 08:59N 45°22' E 012°53'0 0.0
2017-Nov-07 08:23N 45°22' E 012°53'0 0.0
2017-Nov-07 07:59N 45°22' E 012°53'0 0.0
2017-Nov-07 07:29N 45°22' E 012°53'0 0.0
2017-Nov-07 06:59N 45°22' E 012°53'0 0.0
2017-Nov-07 06:29N 45°22' E 012°53'0 0.0
2017-Nov-07 05:59N 45°22' E 012°53'0 0.0
2017-Nov-07 05:29N 45°22' E 012°53'0 0.0
2017-Nov-07 04:59N 45°22' E 012°53'0 0.0
2017-Nov-07 04:23N 45°22' E 012°53'0 0.0
2017-Nov-07 03:59N 45°22' E 012°53'0 0.0
2017-Nov-07 03:29N 45°22' E 012°53'0 0.0
2017-Nov-07 02:56N 45°22' E 012°53'0 0.0
2017-Nov-07 02:23N 45°22' E 012°53'0 0.0
2017-Nov-07 01:59N 45°22' E 012°53'0 0.0
2017-Nov-07 01:23N 45°22' E 012°53'0 0.0
2017-Nov-07 00:59N 45°22' E 012°53'0 0.1
2017-Nov-07 00:29N 45°22' E 012°53'0 0.0
2017-Nov-06 23:59N 45°22' E 012°53'0 0.0
2017-Nov-06 23:26N 45°22' E 012°53'0 0.0
2017-Nov-06 22:59N 45°22' E 012°53'0 0.1
2017-Nov-06 22:29N 45°22' E 012°53'0 0.0
2017-Nov-06 21:53N 45°22' E 012°53'0 0.0
2017-Nov-06 21:29N 45°22' E 012°53'0 0.0
2017-Nov-06 20:56N 45°22' E 012°53'0 0.0
2017-Nov-06 20:14N 45°22' E 012°53'0 0.0
2017-Nov-06 02:26N 45°22' E 012°53'0 0.1
2017-Nov-06 01:59N 45°22' E 012°53'0 0.3
2017-Nov-06 01:30N 45°22' E 012°53'3 6.3
2017-Nov-06 01:00N 45°23' E 012°57'510.4
2017-Nov-06 00:30N 45°22' E 013°05'510.2
2017-Nov-06 00:00N 45°20' E 013°11'612.4
2017-Nov-05 23:30N 45°14' E 013°13'5 9.7
2017-Nov-05 23:00N 45°09' E 013°15'4 8.9
2017-Nov-05 22:30N 45°05' E 013°16'611.2
2017-Nov-05 22:00N 44°60' E 013°19'611.7
2017-Nov-05 21:31N 44°55' E 013°24'611.9
2017-Nov-05 21:00N 44°50' E 013°29'611.9
2017-Nov-05 20:30N 44°45' E 013°33'612.0
2017-Nov-05 20:00N 44°40' E 013°38'612.2
2017-Nov-05 19:30N 44°35' E 013°42'612.2
2017-Nov-05 19:00N 44°30' E 013°47'612.4
2017-Nov-05 18:30N 44°24' E 013°52'612.3
2017-Nov-05 18:00N 44°19' E 013°56'612.3
2017-Nov-05 17:30N 44°14' E 014°01'1012.2
2017-Nov-05 16:41N 44°06' E 014°09'212.2
2017-Nov-05 16:29N 44°04' E 014°11'  
Track history (hours):
 
Tides and Currents Weather Stations Pressure Air Temp Water Temp Dewpoint Dewpoint Depression Visibility Wind Speed Wind Dir Waves Ship Positions

Ce-bermuda

Last reported at 2017-Nov-14 13:04 UTC. Time now 2017-Nov-24 20:46 UTC.
Position N 44°15' E 013°54'.
Warning: this ship's position is 10 days out of date.

Length 274 m; draft 9.2 m.

Type: Tanker. MMSI: 636017476.

Date/timePositionNaut miles runAvg speedWind from/ knotsBaromVisibWave heightAir tempDewpointWater temp
2017-Nov-14 13:04N 44°15' E 013°54'110.8
2017-Nov-14 12:58N 44°16' E 013°53'510.9
2017-Nov-14 12:30N 44°21' E 013°49'510.6
2017-Nov-14 12:00N 44°25' E 013°46'510.2
2017-Nov-14 11:30N 44°29' E 013°41'510.1
2017-Nov-14 11:00N 44°33' E 013°37'5 9.9
2017-Nov-14 10:30N 44°38' E 013°33'4 8.9
2017-Nov-14 10:00N 44°41' E 013°30'5 9.1
2017-Nov-14 09:30N 44°45' E 013°27'5 9.4
2017-Nov-14 09:00N 44°49' E 013°23'5 9.3
2017-Nov-14 08:30N 44°53' E 013°19'5 9.4
2017-Nov-14 08:00N 44°57' E 013°16'5 9.5
2017-Nov-14 07:30N 45°01' E 013°12'5 9.4
2017-Nov-14 07:00N 45°05' E 013°08'5 9.0
2017-Nov-14 06:30N 45°09' E 013°05'5 9.6
2017-Nov-14 06:00N 45°13' E 013°04'5 9.5
2017-Nov-14 05:30N 45°18' E 013°03'4 8.9
2017-Nov-14 05:00N 45°22' E 013°01'5 9.9
2017-Nov-14 04:30N 45°26' E 013°05'510.3
2017-Nov-14 04:00N 45°30' E 013°09'510.6
2017-Nov-14 03:30N 45°33' E 013°16'510.3
2017-Nov-14 03:00N 45°35' E 013°23'510.0
2017-Nov-14 02:30N 45°37' E 013°29'5 9.2
2017-Nov-14 02:00N 45°38' E 013°36'5 9.9
2017-Nov-14 01:30N 45°37' E 013°43'3 5.2
2017-Nov-14 01:00N 45°37' E 013°46'0 0.0
2017-Nov-14 00:29N 45°37' E 013°46'0 0.0
2017-Nov-13 23:59N 45°37' E 013°46'0 0.0
2017-Nov-13 23:29N 45°37' E 013°46'0 0.0
2017-Nov-13 22:59N 45°37' E 013°46'0 0.0
2017-Nov-13 22:29N 45°37' E 013°46'0 0.0
2017-Nov-13 21:59N 45°37' E 013°46'0 0.0
2017-Nov-13 01:59N 45°37' E 013°46'0 0.0
2017-Nov-13 01:29N 45°37' E 013°46'0 0.0
2017-Nov-13 00:47N 45°37' E 013°46'0 0.0
2017-Nov-13 00:29N 45°37' E 013°46'0 0.0
2017-Nov-12 23:59N 45°37' E 013°46'0 0.0
2017-Nov-12 23:29N 45°37' E 013°46'0 0.0
2017-Nov-12 22:59N 45°37' E 013°46'0 0.0
2017-Nov-12 22:29N 45°37' E 013°46'0 0.0
2017-Nov-12 21:53N 45°37' E 013°46'0 0.0
2017-Nov-12 21:29N 45°37' E 013°46'0 0.0
2017-Nov-12 20:59N 45°37' E 013°46'0 0.0
2017-Nov-12 20:20N 45°37' E 013°46'0 0.0
2017-Nov-12 19:56N 45°37' E 013°46'0 0.0
2017-Nov-12 19:26N 45°37' E 013°46'0 0.0
2017-Nov-12 18:53N 45°37' E 013°46'0 0.0
2017-Nov-12 18:29N 45°37' E 013°46'0 0.0
2017-Nov-12 17:59N 45°37' E 013°46'0 0.0
2017-Nov-12 17:29N 45°37' E 013°46'0 0.0
2017-Nov-12 16:59N 45°37' E 013°46'0 0.0
2017-Nov-12 16:26N 45°37' E 013°46'0 0.0
2017-Nov-12 15:59N 45°37' E 013°46'0 0.0
2017-Nov-12 15:26N 45°37' E 013°46'0 0.0
2017-Nov-12 14:59N 45°37' E 013°46'0 0.0
2017-Nov-12 14:29N 45°37' E 013°46'0 0.0
2017-Nov-12 13:59N 45°37' E 013°46'0 0.0
2017-Nov-12 13:29N 45°37' E 013°46'0 0.0
2017-Nov-12 12:59N 45°37' E 013°46'0 0.0
2017-Nov-12 12:26N 45°37' E 013°46'0 0.0
2017-Nov-12 11:59N 45°37' E 013°46'0 0.0
2017-Nov-12 11:29N 45°37' E 013°46'0 0.0
2017-Nov-12 10:59N 45°37' E 013°46'0 0.0
2017-Nov-12 10:29N 45°37' E 013°46'0 0.0
2017-Nov-12 09:56N 45°37' E 013°46'0 0.0
2017-Nov-12 09:29N 45°37' E 013°46'0 0.0
2017-Nov-12 08:59N 45°37' E 013°46'0 0.0
2017-Nov-12 08:29N 45°37' E 013°46'0 0.0
2017-Nov-12 07:59N 45°37' E 013°46'0 0.0
2017-Nov-12 07:29N 45°37' E 013°46'0 0.0
2017-Nov-12 06:59N 45°37' E 013°46'0 0.0
2017-Nov-12 06:29N 45°37' E 013°46'0 0.0
2017-Nov-12 05:59N 45°37' E 013°46'0 0.0
2017-Nov-12 05:20N 45°37' E 013°46'0 0.0
2017-Nov-12 04:59N 45°37' E 013°46'0 0.0
2017-Nov-12 04:29N 45°37' E 013°46'0 0.0
2017-Nov-12 03:59N 45°37' E 013°46'0 0.0
2017-Nov-12 03:29N 45°37' E 013°46'0 0.0
2017-Nov-12 02:59N 45°37' E 013°46'0 0.0
2017-Nov-12 02:23N 45°37' E 013°46'0 0.0
2017-Nov-12 01:59N 45°37' E 013°46'0 0.0
2017-Nov-12 01:26N 45°37' E 013°46'0 0.0
2017-Nov-12 00:59N 45°37' E 013°46'0 0.0
2017-Nov-12 00:29N 45°37' E 013°46'0 0.0
2017-Nov-11 23:59N 45°37' E 013°46'0 0.0
2017-Nov-11 23:29N 45°37' E 013°46'0 0.0
2017-Nov-11 22:59N 45°37' E 013°46'0 0.0
2017-Nov-11 22:29N 45°37' E 013°46'0 0.0
2017-Nov-11 21:59N 45°37' E 013°46'0 0.0
2017-Nov-11 21:29N 45°37' E 013°46'0 0.6
2017-Nov-11 21:00N 45°37' E 013°46'2 4.1
2017-Nov-11 20:30N 45°37' E 013°43'1 2.1
2017-Nov-11 19:58N 45°38' E 013°42'0 0.1
2017-Nov-11 19:28N 45°38' E 013°42'0 0.1
2017-Nov-11 18:55N 45°38' E 013°42'0 0.1
2017-Nov-11 18:25N 45°38' E 013°42'0 0.1
2017-Nov-11 17:58N 45°38' E 013°42'0 0.0
2017-Nov-11 17:25N 45°38' E 013°42'0 0.0
2017-Nov-11 16:58N 45°38' E 013°42'0 0.0
2017-Nov-11 16:25N 45°38' E 013°42'0 0.0
2017-Nov-11 15:58N 45°38' E 013°42'0 0.0
2017-Nov-11 15:22N 45°38' E 013°42'0 0.0
2017-Nov-11 14:58N 45°38' E 013°42'0 0.0
2017-Nov-11 14:28N 45°38' E 013°42'0 0.0
2017-Nov-11 13:55N 45°38' E 013°42'0 0.0
2017-Nov-11 13:28N 45°38' E 013°42'0 0.0
2017-Nov-11 12:58N 45°38' E 013°42'0 0.1
2017-Nov-11 12:28N 45°38' E 013°42'0 0.1
2017-Nov-11 11:58N 45°38' E 013°42'0 0.1
2017-Nov-11 11:25N 45°38' E 013°42'0 0.1
2017-Nov-11 10:58N 45°38' E 013°42'0 0.1
2017-Nov-11 10:28N 45°38' E 013°42'0 0.1
2017-Nov-11 09:55N 45°38' E 013°42'0 0.0
2017-Nov-11 09:28N 45°38' E 013°42'0 0.0
2017-Nov-11 08:58N 45°38' E 013°42'0 0.0
2017-Nov-11 08:19N 45°38' E 013°42'0 0.0
2017-Nov-11 07:52N 45°38' E 013°42'0 0.1
2017-Nov-11 07:28N 45°38' E 013°42'0 0.0
2017-Nov-11 06:55N 45°38' E 013°42'0 0.0
2017-Nov-11 06:25N 45°38' E 013°42'0 0.0
2017-Nov-11 05:55N 45°38' E 013°42'0 0.0
2017-Nov-11 05:28N 45°38' E 013°42'0 0.0
2017-Nov-11 04:58N 45°38' E 013°42'0 0.0
2017-Nov-11 04:28N 45°38' E 013°42'0 0.0
2017-Nov-11 03:58N 45°38' E 013°42'0 0.0
2017-Nov-11 03:28N 45°38' E 013°42'0 0.0
2017-Nov-11 02:58N 45°38' E 013°42'0 0.0
2017-Nov-11 02:25N 45°38' E 013°42'0 0.0
2017-Nov-11 01:58N 45°38' E 013°42'0 0.0
2017-Nov-11 01:28N 45°38' E 013°42'0 0.0
2017-Nov-11 00:58N 45°38' E 013°42'0 0.0
2017-Nov-11 00:25N 45°38' E 013°42'0 0.0
2017-Nov-10 23:58N 45°38' E 013°42'0 0.0
2017-Nov-10 23:28N 45°38' E 013°42'0 0.0
2017-Nov-10 22:58N 45°38' E 013°42'0 0.0
2017-Nov-10 22:28N 45°38' E 013°42'0 0.0
2017-Nov-10 21:55N 45°38' E 013°42'0 0.0
2017-Nov-10 21:28N 45°38' E 013°42'0 0.1
2017-Nov-10 20:55N 45°38' E 013°42'0 0.1
2017-Nov-10 20:28N 45°38' E 013°42'0 0.2
2017-Nov-10 19:58N 45°38' E 013°42'0 0.1
2017-Nov-10 19:28N 45°38' E 013°42'0 0.0
2017-Nov-10 18:55N 45°38' E 013°42'0 0.0
2017-Nov-10 18:28N 45°38' E 013°42'0 0.0
2017-Nov-10 17:58N 45°38' E 013°42'0 0.0
2017-Nov-10 17:28N 45°38' E 013°42'0 0.0
2017-Nov-10 16:58N 45°38' E 013°42'0 0.0
2017-Nov-10 16:28N 45°38' E 013°42'0 0.0
2017-Nov-10 15:58N 45°38' E 013°42'0 0.0
2017-Nov-10 15:25N 45°38' E 013°42'0 0.0
2017-Nov-10 14:58N 45°38' E 013°42'0 0.0
2017-Nov-10 14:28N 45°38' E 013°42'0 0.0
2017-Nov-10 13:58N 45°38' E 013°42'0 0.0
2017-Nov-10 13:19N 45°38' E 013°42'0 0.0
2017-Nov-10 12:58N 45°38' E 013°42'0 0.0
2017-Nov-10 12:28N 45°38' E 013°42'0 0.0
2017-Nov-10 11:55N 45°38' E 013°42'0 0.0
2017-Nov-10 11:19N 45°38' E 013°42'0 0.0
2017-Nov-10 10:58N 45°38' E 013°42'0 0.1
2017-Nov-10 10:25N 45°38' E 013°42'0 0.1
2017-Nov-10 09:55N 45°38' E 013°42'0 0.0
2017-Nov-10 09:25N 45°38' E 013°42'0 0.0
2017-Nov-10 08:52N 45°38' E 013°42'0 0.2
2017-Nov-10 07:55N 45°38' E 013°42'0 1.2
2017-Nov-10 07:30N 45°38' E 013°41'3 6.1
2017-Nov-10 07:00N 45°37' E 013°37'5 9.8
2017-Nov-10 06:30N 45°34' E 013°31'3 5.6
2017-Nov-10 06:00N 45°33' E 013°28'2 4.6
2017-Nov-10 05:30N 45°31' E 013°25'2 4.5
2017-Nov-10 05:00N 45°30' E 013°22'4 7.0
2017-Nov-10 04:30N 45°29' E 013°18'510.4
2017-Nov-10 04:00N 45°27' E 013°11'510.3
2017-Nov-10 03:30N 45°25' E 013°04'510.0
2017-Nov-10 03:00N 45°23' E 012°57'3 6.8
2017-Nov-10 02:30N 45°22' E 012°53'0 0.3
2017-Nov-10 01:56N 45°22' E 012°53'0 0.1
2017-Nov-10 01:29N 45°22' E 012°53'0 0.0
2017-Nov-10 00:56N 45°22' E 012°53'0 0.0
2017-Nov-10 00:29N 45°22' E 012°53'0 0.0
2017-Nov-09 23:59N 45°22' E 012°53'0 0.0
2017-Nov-09 23:29N 45°22' E 012°53'0 0.0
2017-Nov-09 22:59N 45°22' E 012°53'0 0.0
2017-Nov-09 22:26N 45°22' E 012°53'0 0.0
2017-Nov-09 21:59N 45°22' E 012°53'0 0.0
2017-Nov-09 21:20N 45°22' E 012°53'0 0.0
2017-Nov-09 20:59N 45°22' E 012°53'0 0.0
2017-Nov-09 20:26N 45°22' E 012°53'0 0.0
2017-Nov-09 19:59N 45°22' E 012°53'0 0.0
2017-Nov-09 19:29N 45°22' E 012°53'0 0.0
2017-Nov-09 18:59N 45°22' E 012°53'0 0.0
2017-Nov-09 18:29N 45°22' E 012°53'0 0.0
2017-Nov-09 17:59N 45°22' E 012°53'0 0.0
2017-Nov-09 17:29N 45°22' E 012°53'0 0.0
2017-Nov-09 16:59N 45°22' E 012°53'0 0.0
2017-Nov-09 16:26N 45°22' E 012°53'0 0.0
2017-Nov-09 15:59N 45°22' E 012°53'0 0.0
2017-Nov-09 15:26N 45°22' E 012°53'0 0.0
2017-Nov-09 14:56N 45°22' E 012°53'0 0.0
2017-Nov-09 14:29N 45°22' E 012°53'0 0.0
2017-Nov-09 13:59N 45°22' E 012°53'0 0.1
2017-Nov-09 13:29N 45°22' E 012°53'0 0.0
2017-Nov-09 12:56N 45°22' E 012°53'0 0.0
2017-Nov-09 12:29N 45°22' E 012°53'0 0.0
2017-Nov-09 11:59N 45°22' E 012°53'0 0.0
2017-Nov-09 11:29N 45°22' E 012°53'0 0.0
2017-Nov-09 10:59N 45°22' E 012°53'0 0.0
2017-Nov-09 10:29N 45°22' E 012°53'0 0.0
2017-Nov-09 09:53N 45°22' E 012°53'0 0.0
2017-Nov-09 09:29N 45°22' E 012°53'0 0.0
2017-Nov-09 08:59N 45°22' E 012°53'0 0.0
2017-Nov-09 08:29N 45°22' E 012°53'0 0.0
2017-Nov-09 07:56N 45°22' E 012°53'0 0.1
2017-Nov-09 07:29N 45°22' E 012°53'0 0.0
2017-Nov-09 06:59N 45°22' E 012°53'0 0.0
2017-Nov-09 06:29N 45°22' E 012°53'0 0.0
2017-Nov-09 05:59N 45°22' E 012°53'0 0.0
2017-Nov-09 05:29N 45°22' E 012°53'0 0.0
2017-Nov-09 04:59N 45°22' E 012°53'0 0.1
2017-Nov-09 04:29N 45°22' E 012°53'0 0.0
2017-Nov-09 03:59N 45°22' E 012°53'0 0.0
2017-Nov-09 03:05N 45°22' E 012°53'0 0.0
2017-Nov-09 02:47N 45°22' E 012°53'0 0.0
2017-Nov-09 02:29N 45°22' E 012°53'0 0.0
2017-Nov-09 01:59N 45°22' E 012°53'0 0.0
2017-Nov-09 01:29N 45°22' E 012°53'0 0.1
2017-Nov-09 00:59N 45°22' E 012°53'0 0.0
2017-Nov-09 00:29N 45°22' E 012°53'0 0.0
2017-Nov-08 23:56N 45°22' E 012°53'0 0.0
2017-Nov-08 23:20N 45°22' E 012°53'0 0.0
2017-Nov-08 22:59N 45°22' E 012°53'0 0.0
2017-Nov-08 22:29N 45°22' E 012°53'0 0.0
2017-Nov-08 21:59N 45°22' E 012°53'0 0.0
2017-Nov-08 21:29N 45°22' E 012°53'0 0.0
2017-Nov-08 20:59N 45°22' E 012°53'0 0.1
2017-Nov-08 20:29N 45°22' E 012°53'0 0.1
2017-Nov-08 19:59N 45°22' E 012°53'0 0.0
2017-Nov-08 19:29N 45°22' E 012°53'0 0.0
2017-Nov-08 18:56N 45°22' E 012°53'0 0.0
2017-Nov-08 18:29N 45°22' E 012°53'0 0.0
2017-Nov-08 17:56N 45°22' E 012°53'0 0.0
2017-Nov-08 17:26N 45°22' E 012°53'0 0.0
2017-Nov-08 16:59N 45°22' E 012°53'0 0.0
2017-Nov-08 16:26N 45°22' E 012°53'0 0.0
2017-Nov-08 15:59N 45°22' E 012°53'0 0.0
2017-Nov-08 15:20N 45°22' E 012°53'0 0.0
2017-Nov-08 14:59N 45°22' E 012°53'0 0.0
2017-Nov-08 14:29N 45°22' E 012°53'0 0.0
2017-Nov-08 13:59N 45°22' E 012°53'0 0.0
2017-Nov-08 13:29N 45°22' E 012°53'0 0.0
2017-Nov-08 12:59N 45°22' E 012°53'0 0.0
2017-Nov-08 12:29N 45°22' E 012°53'0 0.0
2017-Nov-08 11:56N 45°22' E 012°53'0 0.0
2017-Nov-08 11:29N 45°22' E 012°53'0 0.0
2017-Nov-08 10:59N 45°22' E 012°53'0 0.0
2017-Nov-08 10:26N 45°22' E 012°53'0 0.0
2017-Nov-08 09:56N 45°22' E 012°53'0 0.0
2017-Nov-08 09:29N 45°22' E 012°53'0 0.0
2017-Nov-08 08:59N 45°22' E 012°53'0 0.0
2017-Nov-08 08:20N 45°22' E 012°53'0 0.0
2017-Nov-08 07:59N 45°22' E 012°53'0 0.0
2017-Nov-08 07:17N 45°22' E 012°53'0 0.0
2017-Nov-08 06:56N 45°22' E 012°53'0 0.0
2017-Nov-08 06:26N 45°22' E 012°53'0 0.0
2017-Nov-08 05:50N 45°22' E 012°53'0 0.0
2017-Nov-08 05:29N 45°22' E 012°53'0 0.0
2017-Nov-08 04:59N 45°22' E 012°53'0 0.0
2017-Nov-08 04:26N 45°22' E 012°53'0 0.0
2017-Nov-08 03:59N 45°22' E 012°53'0 0.0
2017-Nov-08 03:29N 45°22' E 012°53'0 0.0
2017-Nov-08 02:59N 45°22' E 012°53'0 0.0
2017-Nov-08 02:29N 45°22' E 012°53'0 0.0
2017-Nov-08 01:56N 45°22' E 012°53'0 0.0
2017-Nov-08 01:26N 45°22' E 012°53'0 0.0
2017-Nov-08 00:56N 45°22' E 012°53'0 0.0
2017-Nov-08 00:29N 45°22' E 012°53'0 0.0
2017-Nov-07 23:59N 45°22' E 012°53'0 0.0
2017-Nov-07 23:29N 45°22' E 012°53'0 0.0
2017-Nov-07 22:59N 45°22' E 012°53'0 0.0
2017-Nov-07 22:29N 45°22' E 012°53'0 0.0
2017-Nov-07 21:59N 45°22' E 012°53'0 0.0
2017-Nov-07 21:29N 45°22' E 012°53'0 0.0
2017-Nov-07 20:59N 45°22' E 012°53'0 0.0
2017-Nov-07 20:29N 45°22' E 012°53'0 0.0
2017-Nov-07 19:59N 45°22' E 012°53'0 0.0
2017-Nov-07 19:29N 45°22' E 012°53'0 0.0
2017-Nov-07 18:50N 45°22' E 012°53'0 0.1
2017-Nov-07 18:26N 45°22' E 012°53'0 0.0
2017-Nov-07 17:59N 45°22' E 012°53'0 0.0
2017-Nov-07 17:23N 45°22' E 012°53'0 0.0
2017-Nov-07 16:59N 45°22' E 012°53'0 0.0
2017-Nov-07 16:29N 45°22' E 012°53'0 0.0
2017-Nov-07 15:59N 45°22' E 012°53'0 0.0
2017-Nov-07 15:23N 45°22' E 012°53'0 0.0
2017-Nov-07 14:59N 45°22' E 012°53'0 0.0
2017-Nov-07 14:29N 45°22' E 012°53'0 0.0
2017-Nov-07 13:59N 45°22' E 012°53'0 0.0
2017-Nov-07 13:29N 45°22' E 012°53'0 0.1
2017-Nov-07 12:59N 45°22' E 012°53'0 0.0
2017-Nov-07 12:26N 45°22' E 012°53'0 0.0
2017-Nov-07 11:56N 45°22' E 012°53'0 0.0
2017-Nov-07 11:23N 45°22' E 012°53'0 0.0
2017-Nov-07 10:56N 45°22' E 012°53'0 0.0
2017-Nov-07 10:26N 45°22' E 012°53'0 0.0
2017-Nov-07 09:59N 45°22' E 012°53'0 0.0
2017-Nov-07 09:29N 45°22' E 012°53'0 0.0
2017-Nov-07 08:59N 45°22' E 012°53'0 0.0
2017-Nov-07 08:23N 45°22' E 012°53'0 0.0
2017-Nov-07 07:59N 45°22' E 012°53'0 0.0
2017-Nov-07 07:29N 45°22' E 012°53'0 0.0
2017-Nov-07 06:59N 45°22' E 012°53'0 0.0
2017-Nov-07 06:29N 45°22' E 012°53'0 0.0
2017-Nov-07 05:59N 45°22' E 012°53'0 0.0
2017-Nov-07 05:29N 45°22' E 012°53'0 0.0
2017-Nov-07 04:59N 45°22' E 012°53'0 0.0
2017-Nov-07 04:23N 45°22' E 012°53'0 0.0
2017-Nov-07 03:59N 45°22' E 012°53'0 0.0
2017-Nov-07 03:29N 45°22' E 012°53'0 0.0
2017-Nov-07 02:56N 45°22' E 012°53'0 0.0
2017-Nov-07 02:23N 45°22' E 012°53'0 0.0
2017-Nov-07 01:59N 45°22' E 012°53'0 0.0
2017-Nov-07 01:23N 45°22' E 012°53'0 0.0
2017-Nov-07 00:59N 45°22' E 012°53'0 0.1
2017-Nov-07 00:29N 45°22' E 012°53'0 0.0
2017-Nov-06 23:59N 45°22' E 012°53'0 0.0
2017-Nov-06 23:26N 45°22' E 012°53'0 0.0
2017-Nov-06 22:59N 45°22' E 012°53'0 0.1
2017-Nov-06 22:29N 45°22' E 012°53'0 0.0
2017-Nov-06 21:53N 45°22' E 012°53'0 0.0
2017-Nov-06 21:29N 45°22' E 012°53'0 0.0
2017-Nov-06 20:56N 45°22' E 012°53'0 0.0
2017-Nov-06 20:14N 45°22' E 012°53'0 0.0
2017-Nov-06 02:26N 45°22' E 012°53'0 0.1
2017-Nov-06 01:59N 45°22' E 012°53'0 0.3
2017-Nov-06 01:30N 45°22' E 012°53'3 6.3
2017-Nov-06 01:00N 45°23' E 012°57'510.4
2017-Nov-06 00:30N 45°22' E 013°05'510.2
2017-Nov-06 00:00N 45°20' E 013°11'612.4
2017-Nov-05 23:30N 45°14' E 013°13'5 9.7
2017-Nov-05 23:00N 45°09' E 013°15'4 8.9
2017-Nov-05 22:30N 45°05' E 013°16'611.2
2017-Nov-05 22:00N 44°60' E 013°19'611.7
2017-Nov-05 21:31N 44°55' E 013°24'611.9
2017-Nov-05 21:00N 44°50' E 013°29'611.9
2017-Nov-05 20:30N 44°45' E 013°33'612.0
2017-Nov-05 20:00N 44°40' E 013°38'612.2
2017-Nov-05 19:30N 44°35' E 013°42'612.2
2017-Nov-05 19:00N 44°30' E 013°47'612.4
2017-Nov-05 18:30N 44°24' E 013°52'612.3
2017-Nov-05 18:00N 44°19' E 013°56'612.3
2017-Nov-05 17:30N 44°14' E 014°01'1012.2
2017-Nov-05 16:41N 44°06' E 014°09'212.2
2017-Nov-05 16:29N 44°04' E 014°11'  

Dump ship's entire track history